Max, NE (69037)

9:37 AM MDT on May 24, 2015 (GMT -0600)
3 W 1N of Trenton, NE | | Change Station
CLOSE
Current Station
Personal Weather Station
Location: Trenton, NE
Elevation: 2844 ft
Nearby Weather Stations

Elev 2844 ft 40.19 °N, 101.07 °W | Updated 55 seconds ago

Mostly Cloudy
Mostly Cloudy
63.3 °F
Feels Like 63.3 °F
N
2.7
Wind Variable Wind from SW
Gusts 4.9 mph

Today
High -- | Low -- °F
--% Chance of Precip.
Yesterday
High -- | Low -- °F
Precip. -- in
5:22 AM 8:02 PM
Waxing Crescent, 40% visible
Pressure 29.88 in
Visibility 10.0 miles
Clouds Scattered Clouds 1200 ft
Overcast 2000 ft
Dew Point 56 °F
Humidity 78%
Rainfall 0.05 in
Snow Depth Not available.
UV 3.0 out of 12
Pollen 7.90 out of 12
Air Quality Not available.
Flu Activity No Activity
SPECI KIML 241528Z AUTO 08004KT 10SM SCT012 OVC020 15/12 A2988 RMK AO2 T01500117 $

More Conditions Fewer Conditions

Pressure 29.88 in
Visibility 10.0 miles
Clouds Scattered Clouds 1200 ft
Overcast 2000 ft
Dew Point 56 °F
Humidity 78%
Rainfall 0.05 in
Snow Depth Not available.
UV 3.0 out of 12
Pollen 7.90 out of 12
Air Quality Not available.
Flu Activity No Activity
SPECI KIML 241528Z AUTO 08004KT 10SM SCT012 OVC020 15/12 A2988 RMK AO2 T01500117 $

More Conditions Fewer Conditions

10-Day Weather Forecast

Almanac

Astronomy

May. 24, 2015 Rise Set
Actual Time
Civil Twilight
Nautical Twilight
Astronomical Twilight
Moon
Length of Visible Light
Length of Day
Tomorrow will be .
, % of the Moon is Illuminated

Today's Extremes

State Highs State Lows

Community

WunderPhotos

Upload Photos

1,823,770 photos uploaded!

WunderBlogs® & News

Nearby

Air Quality

  Air Quality AQ Index Pollutant
Not available.

Snow Depth

Station Depth Elevation

Earthquake Activity

City Distance Mag. Time & Date
Minimum magnitude displayed is 2.5.

Coastal Water Temperatures

Place Temperature

Stations

Nearby Weather Stations

Station Location Temp. Windchill Dew Point Humidity Wind Precip. Elev Updated Type